createdAt,value
2022-10-31T00:02:20.554Z,96132.00
2022-10-31T00:06:23.961Z,96129.00
2022-10-31T00:10:28.021Z,96132.00
2022-10-31T00:14:30.696Z,96137.00
2022-10-31T00:18:33.543Z,96131.00
2022-10-31T00:22:36.238Z,96123.00
2022-10-31T00:26:40.285Z,96125.00
2022-10-31T00:30:42.986Z,96131.00
2022-10-31T00:34:45.731Z,96129.00
2022-10-31T00:38:49.407Z,96128.00
2022-10-31T00:42:53.621Z,96118.00
2022-10-31T00:46:56.357Z,96123.00
2022-10-31T00:50:59.281Z,96126.00
2022-10-31T00:55:02.079Z,96127.00
2022-10-31T00:59:06.349Z,96119.00
2022-10-31T01:03:09.081Z,96119.00
2022-10-31T01:07:15.750Z,96113.00
2022-10-31T01:11:23.144Z,96117.00
2022-10-31T01:15:27.222Z,96110.00
2022-10-31T01:19:29.909Z,96109.00
2022-10-31T01:23:34.066Z,96119.00
2022-10-31T01:27:36.825Z,96114.00
2022-10-31T01:31:42.014Z,96111.00
2022-10-31T01:35:45.200Z,96112.00
2022-10-31T01:39:50.016Z,96107.00
2022-10-31T01:43:55.346Z,96113.00
2022-10-31T01:47:59.679Z,96107.00
2022-10-31T01:52:06.465Z,96111.00
2022-10-31T01:56:10.139Z,96107.00
2022-10-31T02:00:15.600Z,96104.00
2022-10-31T02:04:20.486Z,96111.00
2022-10-31T02:08:28.384Z,96114.00
2022-10-31T02:12:34.278Z,96108.00
2022-10-31T02:16:37.110Z,96109.00
2022-10-31T02:20:53.004Z,96101.00
2022-10-31T02:25:14.626Z,96104.00
2022-10-31T02:29:40.593Z,96096.00
2022-10-31T02:33:50.609Z,96095.00
2022-10-31T02:37:59.044Z,96096.00
2022-10-31T02:42:08.216Z,96101.00
2022-10-31T02:46:16.861Z,96092.00
2022-10-31T02:50:26.694Z,96096.00
2022-10-31T02:54:30.789Z,96092.00
2022-10-31T02:58:37.828Z,96099.00
2022-10-31T03:03:01.890Z,96104.00
2022-10-31T03:07:13.214Z,96100.00
2022-10-31T03:11:16.693Z,96098.00
2022-10-31T03:15:23.892Z,96094.00
2022-10-31T03:19:30.652Z,96093.00
2022-10-31T03:23:37.615Z,96101.00
2022-10-31T03:27:44.416Z,96100.00
2022-10-31T03:31:52.128Z,96107.00
2022-10-31T03:35:57.401Z,96091.00
2022-10-31T03:40:03.928Z,96101.00
2022-10-31T03:44:12.044Z,96104.00
2022-10-31T03:48:20.360Z,96103.00
2022-10-31T03:52:29.318Z,96103.00
2022-10-31T03:56:37.416Z,96108.00
2022-10-31T04:00:42.761Z,96100.00
2022-10-31T04:04:47.518Z,96092.00
2022-10-31T04:08:54.660Z,96097.00
2022-10-31T04:13:02.505Z,96098.00
2022-10-31T04:17:15.880Z,96095.00
2022-10-31T04:21:19.439Z,96100.00
2022-10-31T04:25:22.216Z,96097.00
2022-10-31T04:29:26.779Z,96101.00
2022-10-31T04:33:29.588Z,96096.00
2022-10-31T04:37:32.382Z,96094.00
2022-10-31T04:41:36.123Z,96096.00
2022-10-31T04:45:42.943Z,96095.00
2022-10-31T04:49:46.004Z,96093.00
2022-10-31T04:53:49.893Z,96093.00
2022-10-31T04:58:18.184Z,96085.00
2022-10-31T05:02:22.562Z,96086.00
2022-10-31T05:06:31.345Z,96088.00
2022-10-31T05:10:34.317Z,96083.00
2022-10-31T05:14:38.081Z,96088.00
2022-10-31T05:19:00.935Z,96084.00
2022-10-31T05:23:03.608Z,96081.00
2022-10-31T05:27:06.960Z,96084.00
2022-10-31T05:31:09.728Z,96078.00
2022-10-31T05:35:16.651Z,96071.00
2022-10-31T05:39:39.353Z,96069.00
2022-10-31T05:43:48.787Z,96078.00
2022-10-31T05:47:55.091Z,96074.00
2022-10-31T05:52:30.964Z,96077.00
2022-10-31T05:56:43.811Z,96068.00
2022-10-31T06:00:46.533Z,96068.00
2022-10-31T06:04:50.033Z,96069.00
2022-10-31T06:08:54.554Z,96072.00
2022-10-31T06:12:58.995Z,96072.00
2022-10-31T06:17:13.181Z,96065.00
2022-10-31T06:21:25.010Z,96075.00
2022-10-31T06:25:30.065Z,96074.00
2022-10-31T06:29:33.121Z,96076.00
2022-10-31T06:33:43.452Z,96068.00
2022-10-31T06:37:53.269Z,96078.00
2022-10-31T06:42:13.833Z,96071.00
2022-10-31T06:46:16.710Z,96070.00
2022-10-31T06:50:26.938Z,96074.00
2022-10-31T06:54:29.817Z,96077.00
2022-10-31T06:58:34.347Z,96070.00
2022-10-31T07:02:39.888Z,96079.00
2022-10-31T07:06:42.637Z,96085.00
2022-10-31T07:10:52.388Z,96081.00
2022-10-31T07:14:57.494Z,96085.00
2022-10-31T07:19:00.503Z,96079.00
2022-10-31T07:23:05.990Z,96083.00
2022-10-31T07:27:09.315Z,96092.00
2022-10-31T07:31:13.483Z,96089.00
2022-10-31T07:35:18.496Z,96080.00
2022-10-31T07:39:23.568Z,96095.00
2022-10-31T07:43:26.528Z,96096.00
2022-10-31T07:47:56.742Z,96096.00
2022-10-31T07:52:22.354Z,96082.00
2022-10-31T07:56:43.610Z,96074.00
2022-10-31T08:00:47.848Z,96079.00
2022-10-31T08:05:00.199Z,96081.00
2022-10-31T08:09:04.181Z,96070.00
2022-10-31T08:13:10.168Z,96070.00
2022-10-31T08:17:16.557Z,96059.00
2022-10-31T08:21:29.753Z,96065.00
2022-10-31T08:25:38.368Z,96067.00
2022-10-31T08:29:41.843Z,96058.00
2022-10-31T08:33:44.829Z,96061.00
2022-10-31T08:37:56.108Z,96053.00
2022-10-31T08:42:02.169Z,96052.00
2022-10-31T08:46:05.222Z,96044.00
2022-10-31T08:50:09.057Z,96039.00
2022-10-31T08:54:13.165Z,96037.00
2022-10-31T08:58:30.778Z,96027.00
2022-10-31T09:02:39.324Z,96029.00
2022-10-31T09:06:50.291Z,96029.00
2022-10-31T09:11:00.516Z,96037.00
2022-10-31T09:15:40.712Z,96023.00
2022-10-31T09:20:10.470Z,96021.00
2022-10-31T09:24:13.456Z,96021.00
2022-10-31T09:28:21.240Z,96021.00
2022-10-31T09:32:24.036Z,96016.00
2022-10-31T09:36:26.943Z,96010.00
2022-10-31T09:40:36.435Z,96018.00
2022-10-31T09:44:50.938Z,96011.00
2022-10-31T09:49:29.963Z,96004.00
2022-10-31T09:53:39.465Z,96017.00
2022-10-31T09:57:43.953Z,96019.00
2022-10-31T10:01:53.081Z,96014.00
2022-10-31T10:06:04.019Z,96009.00
2022-10-31T10:10:38.100Z,96004.00
2022-10-31T10:15:19.156Z,96007.00
2022-10-31T10:19:36.045Z,95998.00
2022-10-31T10:23:49.984Z,96002.00
2022-10-31T10:28:08.720Z,96002.00
2022-10-31T10:32:29.271Z,96000.00
2022-10-31T10:36:39.754Z,95990.00
2022-10-31T10:40:43.200Z,95984.00
2022-10-31T10:45:05.994Z,95985.00
2022-10-31T10:49:27.369Z,95983.00
2022-10-31T10:54:00.505Z,95978.00
2022-10-31T10:58:05.576Z,95967.00
2022-10-31T11:02:18.900Z,95966.00
2022-10-31T11:06:26.827Z,95964.00
2022-10-31T11:10:31.194Z,95963.00
2022-10-31T11:14:37.813Z,95955.00
2022-10-31T11:18:43.587Z,95946.00
2022-10-31T11:22:46.975Z,95939.00
2022-10-31T11:26:52.427Z,95940.00
2022-10-31T11:30:57.590Z,95941.00
2022-10-31T11:35:04.190Z,95930.00
2022-10-31T11:39:15.864Z,95929.00
2022-10-31T11:43:20.611Z,95916.00
2022-10-31T11:47:28.237Z,95915.00
2022-10-31T11:51:36.652Z,95923.00
2022-10-31T11:55:40.713Z,95920.00
2022-10-31T11:59:53.385Z,95914.00
2022-10-31T12:04:04.092Z,95914.00
2022-10-31T12:08:09.073Z,95903.00
2022-10-31T12:12:26.163Z,95901.00
2022-10-31T12:16:36.157Z,95907.00
2022-10-31T12:20:49.461Z,95912.00
2022-10-31T12:25:18.396Z,95918.00
2022-10-31T12:29:40.094Z,95901.00
2022-10-31T12:33:55.929Z,95897.00
2022-10-31T12:38:25.710Z,95883.00
2022-10-31T12:42:45.580Z,95881.00
2022-10-31T12:47:07.401Z,95877.00
2022-10-31T12:51:17.759Z,95863.00
2022-10-31T12:55:37.949Z,95864.00
2022-10-31T12:59:44.701Z,95862.00
2022-10-31T13:03:57.690Z,95853.00
2022-10-31T13:08:07.741Z,95851.00
2022-10-31T13:12:13.473Z,95847.00
2022-10-31T13:16:19.054Z,95840.00
2022-10-31T13:20:27.905Z,95843.00
2022-10-31T13:24:38.126Z,95838.00
2022-10-31T13:28:46.646Z,95840.00
2022-10-31T13:32:55.272Z,95837.00
2022-10-31T13:37:06.134Z,95843.00
2022-10-31T13:41:19.239Z,95831.00
2022-10-31T13:45:24.308Z,95829.00
2022-10-31T13:49:39.008Z,95821.00
2022-10-31T13:54:00.032Z,95829.00
2022-10-31T13:58:06.407Z,95818.00
2022-10-31T14:02:15.728Z,95814.00
2022-10-31T14:06:18.825Z,95813.00
2022-10-31T14:10:28.874Z,95802.00
2022-10-31T14:14:38.053Z,95800.00
2022-10-31T14:18:45.444Z,95786.00
2022-10-31T14:22:48.379Z,95791.00
2022-10-31T14:26:55.953Z,95797.00
2022-10-31T14:31:01.620Z,95798.00
2022-10-31T14:35:05.379Z,95792.00
2022-10-31T14:39:15.838Z,95791.00
2022-10-31T14:43:39.433Z,95774.00
2022-10-31T14:47:53.369Z,95773.00
2022-10-31T14:51:57.360Z,95770.00
2022-10-31T14:56:05.743Z,95773.00
2022-10-31T15:00:17.192Z,95767.00
2022-10-31T15:04:25.236Z,95760.00
2022-10-31T15:08:35.744Z,95751.00
2022-10-31T15:12:39.469Z,95754.00
2022-10-31T15:16:44.892Z,95748.00
2022-10-31T15:20:50.129Z,95753.00
2022-10-31T15:24:57.166Z,95748.00
2022-10-31T15:29:02.769Z,95751.00
2022-10-31T15:33:21.260Z,95757.00
2022-10-31T15:37:26.975Z,95758.00
2022-10-31T15:41:35.505Z,95752.00
2022-10-31T15:45:38.229Z,95752.00
2022-10-31T15:49:43.144Z,95741.00
2022-10-31T15:53:50.351Z,95734.00
2022-10-31T15:57:54.673Z,95741.00
2022-10-31T16:02:03.584Z,95739.00
2022-10-31T16:06:07.571Z,95744.00
2022-10-31T16:10:26.838Z,95757.00
2022-10-31T16:14:33.050Z,95751.00
2022-10-31T16:18:39.548Z,95747.00
2022-10-31T16:22:52.131Z,95760.00
2022-10-31T16:27:02.787Z,95757.00
2022-10-31T16:31:15.276Z,95758.00
2022-10-31T16:35:27.548Z,95752.00
2022-10-31T16:39:30.268Z,95746.00
2022-10-31T16:43:34.357Z,95755.00
2022-10-31T16:47:37.115Z,95742.00
2022-10-31T16:51:39.900Z,95754.00
2022-10-31T16:55:46.781Z,95748.00
2022-10-31T16:59:54.594Z,95752.00
2022-10-31T17:03:57.270Z,95744.00
2022-10-31T17:08:00.859Z,95751.00
2022-10-31T17:12:04.104Z,95760.00
2022-10-31T17:16:08.798Z,95759.00
2022-10-31T17:20:22.352Z,95750.00
2022-10-31T17:24:25.031Z,95746.00
2022-10-31T17:28:28.109Z,95754.00
2022-10-31T17:32:32.169Z,95750.00
2022-10-31T17:36:35.978Z,95754.00
2022-10-31T17:40:39.510Z,95746.00
2022-10-31T17:44:42.245Z,95735.00
2022-10-31T17:48:46.328Z,95737.00
2022-10-31T17:52:49.765Z,95743.00
2022-10-31T17:56:54.533Z,95740.00
2022-10-31T18:00:57.833Z,95744.00
2022-10-31T18:05:03.135Z,95744.00
2022-10-31T18:09:06.876Z,95750.00
2022-10-31T18:13:09.581Z,95746.00
2022-10-31T18:17:12.387Z,95737.00
2022-10-31T18:21:16.421Z,95734.00
2022-10-31T18:25:19.411Z,95731.00
2022-10-31T18:29:22.213Z,95739.00
2022-10-31T18:33:24.949Z,95723.00
2022-10-31T18:37:29.065Z,95727.00
2022-10-31T18:41:31.748Z,95730.00
2022-10-31T18:45:46.653Z,95729.00
2022-10-31T18:49:50.760Z,95727.00
2022-10-31T18:53:56.029Z,95721.00
2022-10-31T18:57:58.699Z,95732.00
2022-10-31T19:02:01.563Z,95723.00
2022-10-31T19:06:05.069Z,95718.00
2022-10-31T19:10:09.863Z,95717.00
2022-10-31T19:14:14.866Z,95718.00
2022-10-31T19:18:17.574Z,95722.00
2022-10-31T19:22:20.303Z,95717.00
2022-10-31T19:26:24.743Z,95704.00
2022-10-31T19:30:27.505Z,95707.00
2022-10-31T19:34:30.257Z,95708.00
2022-10-31T19:38:33.582Z,95717.00
2022-10-31T19:42:37.637Z,95707.00
2022-10-31T19:46:59.738Z,95719.00
2022-10-31T19:51:04.197Z,95709.00
2022-10-31T19:55:07.583Z,95703.00
2022-10-31T19:59:11.742Z,95704.00
2022-10-31T20:03:19.772Z,95707.00
2022-10-31T20:07:26.362Z,95697.00
2022-10-31T20:11:29.891Z,95697.00
2022-10-31T20:15:35.173Z,95691.00
2022-10-31T20:19:39.072Z,95698.00
2022-10-31T20:23:42.453Z,95704.00
2022-10-31T20:27:45.142Z,95704.00
2022-10-31T20:31:49.549Z,95705.00
2022-10-31T20:35:52.278Z,95701.00
2022-10-31T20:39:56.568Z,95704.00
2022-10-31T20:43:59.471Z,95698.00
2022-10-31T20:48:03.847Z,95703.00
2022-10-31T20:52:06.864Z,95698.00
2022-10-31T20:56:11.846Z,95706.00
2022-10-31T21:00:15.235Z,95698.00
2022-10-31T21:04:19.346Z,95701.00
2022-10-31T21:08:22.353Z,95703.00
2022-10-31T21:12:26.085Z,95703.00
2022-10-31T21:16:31.008Z,95708.00
2022-10-31T21:20:35.247Z,95700.00
2022-10-31T21:24:37.929Z,95703.00
2022-10-31T21:28:40.996Z,95706.00
2022-10-31T21:32:43.861Z,95703.00
2022-10-31T21:36:47.961Z,95705.00
2022-10-31T21:40:50.702Z,95697.00
2022-10-31T21:44:53.422Z,95697.00
2022-10-31T21:48:56.931Z,95697.00
2022-10-31T21:53:21.535Z,95691.00
2022-10-31T21:57:24.327Z,95685.00
2022-10-31T22:01:28.312Z,95686.00
2022-10-31T22:05:31.127Z,95684.00
2022-10-31T22:09:35.297Z,95689.00
2022-10-31T22:13:38.653Z,95688.00
2022-10-31T22:17:41.453Z,95679.00
2022-10-31T22:21:46.345Z,95673.00
2022-10-31T22:25:50.434Z,95667.00
2022-10-31T22:29:56.512Z,95668.00
2022-10-31T22:34:00.008Z,95666.00
2022-10-31T22:38:02.728Z,95660.00
2022-10-31T22:42:06.876Z,95663.00
2022-10-31T22:46:13.128Z,95661.00
2022-10-31T22:50:15.874Z,95652.00
2022-10-31T22:54:19.725Z,95657.00
2022-10-31T22:58:24.947Z,95657.00
2022-10-31T23:02:28.698Z,95659.00
2022-10-31T23:06:33.661Z,95662.00
2022-10-31T23:10:41.171Z,95667.00
2022-10-31T23:14:45.227Z,95663.00
2022-10-31T23:18:50.443Z,95666.00
2022-10-31T23:22:53.357Z,95657.00
2022-10-31T23:27:07.991Z,95660.00
2022-10-31T23:31:12.081Z,95665.00
2022-10-31T23:35:14.785Z,95662.00
2022-10-31T23:39:21.183Z,95665.00
2022-10-31T23:43:26.917Z,95674.00
2022-10-31T23:47:30.979Z,95715.00
2022-10-31T23:51:33.806Z,95705.00
2022-10-31T23:55:38.258Z,95690.00
2022-10-31T23:59:41.018Z,95699.00
